Time;durP1;ratioP1;P1;durP2;ratioP2;P2;SDS_P1;SDS_P2;PMS_P1;PMS_P2;Temp;Humidity;BMP_temperature;BMP_pressure;BME280_temperature;BME280_humidity;BME280_pressure;Samples;Min_cycle;Max_cycle;Signal;HPM_P1;HPM_P2
2023/12/20 00:01:50;;;;;;;2.97;2.17;;;4.30;99.90;;;;;;4982463;28;20034;-85
2023/12/20 00:04:16;;;;;;;2.33;1.77;;;4.20;99.90;;;;;;4985619;28;20563;-85
2023/12/20 00:06:42;;;;;;;2.78;2.15;;;4.10;99.90;;;;;;4983627;28;20069;-85
2023/12/20 00:09:08;;;;;;;4.55;2.20;;;4.10;99.90;;;;;;4965047;28;20031;-85
2023/12/20 00:11:34;;;;;;;3.13;2.38;;;4.10;99.90;;;;;;4970261;28;20035;-86
2023/12/20 00:14:00;;;;;;;3.83;2.58;;;4.10;99.90;;;;;;4941628;29;20032;-86
2023/12/20 00:16:25;;;;;;;3.67;2.50;;;4.10;99.90;;;;;;4959333;29;20037;-86
2023/12/20 00:18:52;;;;;;;2.70;1.77;;;4.00;99.90;;;;;;4979667;28;20046;-86
2023/12/20 00:21:18;;;;;;;2.90;2.20;;;4.00;99.90;;;;;;4978589;28;20039;-86
2023/12/20 00:23:43;;;;;;;2.30;1.98;;;4.10;99.90;;;;;;4967115;28;20078;-86
2023/12/20 00:26:09;;;;;;;2.97;2.15;;;4.20;99.90;;;;;;4938707;29;20035;-84
2023/12/20 00:28:35;;;;;;;2.75;2.10;;;4.20;99.90;;;;;;4955349;28;20031;-86
2023/12/20 00:31:01;;;;;;;4.22;2.00;;;4.30;99.90;;;;;;4957746;28;20015;-85
2023/12/20 00:33:27;;;;;;;5.13;2.03;;;4.40;99.90;;;;;;4973960;28;20038;-84
2023/12/20 00:35:53;;;;;;;3.85;2.70;;;4.40;99.90;;;;;;4974071;28;20027;-86
2023/12/20 00:38:19;;;;;;;4.47;2.55;;;4.50;99.90;;;;;;4974555;28;20031;-85
2023/12/20 00:40:45;;;;;;;3.85;2.33;;;4.50;99.90;;;;;;4956762;28;20540;-84
2023/12/20 00:43:11;;;;;;;4.78;2.80;;;4.60;99.90;;;;;;4974042;28;20023;-85
2023/12/20 00:45:37;;;;;;;3.25;2.38;;;4.60;99.90;;;;;;4956117;28;20484;-84
2023/12/20 00:48:03;;;;;;;2.78;2.25;;;4.70;99.90;;;;;;4975482;28;20101;-84
2023/12/20 00:50:29;;;;;;;4.55;2.15;;;4.70;99.90;;;;;;4977470;28;20364;-85
2023/12/20 00:52:54;;;;;;;4.95;2.67;;;4.70;99.90;;;;;;4977328;28;20023;-83
2023/12/20 00:55:20;;;;;;;3.85;2.58;;;4.70;99.90;;;;;;4977651;28;20422;-85
2023/12/20 00:57:47;;;;;;;4.05;2.08;;;4.70;99.90;;;;;;4974814;28;20093;-86
2023/12/20 01:00:13;;;;;;;3.00;2.50;;;4.70;99.90;;;;;;4960171;28;20472;-84
2023/12/20 01:02:40;;;;;;;5.30;3.00;;;4.70;99.90;;;;;;4959179;28;20098;-84
2023/12/20 01:05:07;;;;;;;5.17;2.23;;;4.70;99.90;;;;;;4959787;28;20566;-85
2023/12/20 01:07:33;;;;;;;3.55;2.60;;;4.70;99.90;;;;;;4977057;28;20646;-85
2023/12/20 01:09:59;;;;;;;3.33;1.98;;;4.70;99.90;;;;;;4971907;28;20023;-85
2023/12/20 01:12:25;;;;;;;3.53;2.72;;;4.70;99.90;;;;;;4962491;28;20098;-85
2023/12/20 01:14:51;;;;;;;3.42;2.20;;;4.70;99.90;;;;;;4953122;29;20102;-84
2023/12/20 01:17:17;;;;;;;3.20;2.25;;;4.60;99.90;;;;;;4957672;29;20035;-84
2023/12/20 01:19:42;;;;;;;3.25;2.95;;;4.60;99.90;;;;;;4968850;28;20026;-85
2023/12/20 01:22:08;;;;;;;2.10;1.83;;;4.50;99.90;;;;;;4952610;29;20096;-84
2023/12/20 01:24:34;;;;;;;5.35;2.10;;;4.50;99.90;;;;;;4944534;29;20019;-85
2023/12/20 01:27:00;;;;;;;12.02;2.72;;;4.40;99.90;;;;;;4961752;28;20028;-86
2023/12/20 01:29:26;;;;;;;3.92;2.80;;;4.40;99.90;;;;;;4992914;28;20055;-85
2023/12/20 01:31:52;;;;;;;4.47;2.53;;;4.30;99.90;;;;;;4967066;29;20031;-86
2023/12/20 01:34:18;;;;;;;3.05;2.13;;;4.30;99.90;;;;;;4994117;28;20023;-83
2023/12/20 01:36:44;;;;;;;3.97;2.40;;;4.40;99.90;;;;;;4986410;28;20040;-86
2023/12/20 01:39:10;;;;;;;3.08;2.53;;;4.40;99.90;;;;;;4957184;28;20020;-85
2023/12/20 01:41:36;;;;;;;3.63;2.10;;;4.50;99.90;;;;;;4940928;29;20481;-84
2023/12/20 01:44:01;;;;;;;2.97;2.20;;;4.50;99.90;;;;;;4948329;28;20027;-85
2023/12/20 01:46:27;;;;;;;4.03;2.67;;;4.40;99.90;;;;;;4939831;29;20035;-85
2023/12/20 01:48:53;;;;;;;2.90;2.15;;;4.40;99.90;;;;;;4947821;29;20154;-86
2023/12/20 01:51:20;;;;;;;3.65;1.88;;;4.40;99.90;;;;;;4958066;28;20031;-85
2023/12/20 01:53:47;;;;;;;5.53;2.45;;;4.30;99.90;;;;;;4980241;28;20488;-86
2023/12/20 01:56:13;;;;;;;4.75;2.42;;;4.30;99.90;;;;;;4952446;28;20400;-85
2023/12/20 01:58:44;;;;;;;3.08;1.92;;;4.30;99.90;;;;;;4975611;28;20102;-84
2023/12/20 02:01:10;;;;;;;4.70;2.17;;;4.20;99.90;;;;;;4950939;28;20031;-84
2023/12/20 02:03:36;;;;;;;3.35;2.30;;;4.10;99.90;;;;;;4950205;28;20039;-84
2023/12/20 02:06:03;;;;;;;4.95;2.10;;;4.10;99.90;;;;;;4976060;28;20023;-85
2023/12/20 02:08:30;;;;;;;3.45;2.20;;;4.00;99.90;;;;;;4975893;28;20380;-85
2023/12/20 02:10:56;;;;;;;3.47;2.13;;;4.00;99.90;;;;;;4953163;29;20500;-86
2023/12/20 02:13:22;;;;;;;1.73;1.40;;;4.10;99.90;;;;;;4970194;28;20153;-84
2023/12/20 02:15:48;;;;;;;4.03;1.58;;;4.10;99.90;;;;;;4964212;28;20129;-85
2023/12/20 02:18:16;;;;;;;3.45;1.77;;;4.10;99.90;;;;;;4976046;28;20595;-85
2023/12/20 02:20:42;;;;;;;3.95;1.75;;;4.20;99.90;;;;;;4943164;29;20498;-85
2023/12/20 02:23:08;;;;;;;4.93;1.73;;;4.30;99.90;;;;;;4956749;29;20035;-85
2023/12/20 02:25:34;;;;;;;1.80;1.38;;;4.30;99.90;;;;;;4939311;29;20078;-86
2023/12/20 02:28:00;;;;;;;1.70;1.20;;;4.30;99.90;;;;;;4962408;28;20019;-82
2023/12/20 02:30:26;;;;;;;2.92;1.55;;;4.30;99.90;;;;;;4976216;28;20023;-84
2023/12/20 02:32:53;;;;;;;3.10;1.60;;;4.30;99.90;;;;;;4968305;28;20384;-86
2023/12/20 02:35:19;;;;;;;2.67;1.42;;;4.30;99.90;;;;;;4959497;28;20122;-86
2023/12/20 02:37:45;;;;;;;1.90;1.30;;;4.40;99.90;;;;;;4960619;28;20063;-85
2023/12/20 02:40:11;;;;;;;3.58;1.70;;;4.40;99.90;;;;;;4960515;28;20028;-85
2023/12/20 02:42:37;;;;;;;2.20;1.33;;;4.40;99.90;;;;;;4967437;28;20038;-84
2023/12/20 02:45:03;;;;;;;3.38;1.10;;;4.50;99.90;;;;;;4968482;28;20018;-84
2023/12/20 02:47:29;;;;;;;3.05;1.52;;;4.50;99.90;;;;;;4974548;28;20030;-84
2023/12/20 02:49:56;;;;;;;2.42;1.40;;;4.50;99.90;;;;;;4957693;28;20133;-82
2023/12/20 02:52:23;;;;;;;4.03;1.83;;;4.50;99.90;;;;;;4963732;28;20042;-85
2023/12/20 02:54:49;;;;;;;;;;;4.50;99.90;;;;;;4959053;28;20023;-81
2023/12/20 02:57:15;;;;;;;2.05;1.45;;;4.60;99.90;;;;;;4955876;28;19994;-83
2023/12/20 02:59:40;;;;;;;2.15;1.50;;;4.60;99.90;;;;;;4956668;28;20019;-81
2023/12/20 03:02:06;;;;;;;2.33;1.92;;;4.60;99.90;;;;;;4956910;28;20034;-83
2023/12/20 03:04:32;;;;;;;3.67;2.00;;;4.60;99.90;;;;;;4935818;29;20052;-83
2023/12/20 03:06:58;;;;;;;3.03;2.33;;;4.60;99.90;;;;;;4950383;29;20425;-82
2023/12/20 03:09:24;;;;;;;3.22;2.45;;;4.60;99.90;;;;;;4949495;28;20027;-79
2023/12/20 03:11:50;;;;;;;4.00;2.42;;;4.60;99.90;;;;;;4938899;29;20028;-82
2023/12/20 03:14:16;;;;;;;3.80;2.20;;;4.60;99.90;;;;;;4963849;28;20054;-82
2023/12/20 03:16:41;;;;;;;4.32;3.00;;;4.60;99.90;;;;;;4972181;28;20081;-80
2023/12/20 03:19:07;;;;;;;4.72;2.63;;;4.60;99.90;;;;;;4963752;29;20038;-84
2023/12/20 03:21:33;;;;;;;4.22;2.70;;;4.60;99.90;;;;;;4958404;29;20031;-85
2023/12/20 03:23:59;;;;;;;4.07;2.88;;;4.50;99.90;;;;;;4973540;29;20028;-85
2023/12/20 03:26:25;;;;;;;7.32;2.67;;;4.50;99.90;;;;;;4968554;28;20027;-85
2023/12/20 03:28:51;;;;;;;4.88;3.05;;;4.50;99.90;;;;;;4992175;28;20046;-84
2023/12/20 03:31:17;;;;;;;7.50;3.03;;;4.40;99.90;;;;;;4961464;28;20034;-83
2023/12/20 03:33:43;;;;;;;4.00;3.00;;;4.30;99.90;;;;;;4979896;28;20143;-82
2023/12/20 03:36:09;;;;;;;5.90;2.90;;;4.20;99.90;;;;;;4956997;29;20043;-83
2023/12/20 03:38:35;;;;;;;4.50;2.83;;;4.20;99.90;;;;;;4957628;28;20034;-83
2023/12/20 03:41:01;;;;;;;5.35;3.35;;;4.10;99.90;;;;;;4954973;28;20031;-85
2023/12/20 03:43:27;;;;;;;4.57;2.72;;;4.10;99.90;;;;;;4947635;28;20218;-83
2023/12/20 03:45:53;;;;;;;4.60;3.00;;;4.20;99.90;;;;;;4963845;28;20481;-88
2023/12/20 03:48:18;;;;;;;6.25;3.25;;;4.20;99.90;;;;;;4943403;28;20043;-82
2023/12/20 03:50:44;;;;;;;3.63;3.05;;;4.20;99.90;;;;;;4961410;28;20362;-81
2023/12/20 03:53:10;;;;;;;6.55;3.35;;;4.20;99.90;;;;;;4954460;28;20440;-83
2023/12/20 03:55:36;;;;;;;5.75;4.05;;;4.20;99.90;;;;;;4955312;28;20020;-81
2023/12/20 03:58:02;;;;;;;5.47;3.90;;;4.20;99.90;;;;;;4954173;29;20078;-83
2023/12/20 04:00:28;;;;;;;8.07;4.50;;;4.20;99.90;;;;;;4960783;28;20419;-86
2023/12/20 04:02:54;;;;;;;5.05;3.67;;;4.30;99.90;;;;;;4949598;29;20027;-85
2023/12/20 04:05:20;;;;;;;6.95;4.28;;;4.30;99.90;;;;;;4961671;28;20038;-84
2023/12/20 04:07:45;;;;;;;6.25;3.92;;;4.30;99.90;;;;;;4950934;29;20078;-84
2023/12/20 04:10:11;;;;;;;8.25;4.28;;;4.30;99.90;;;;;;4940068;29;20027;-84
2023/12/20 04:12:37;;;;;;;5.82;3.80;;;4.40;99.90;;;;;;4960800;28;20053;-86
2023/12/20 04:15:08;;;;;;;7.53;4.03;;;4.40;99.90;;;;;;4954419;29;20088;-81
2023/12/20 04:17:35;;;;;;;9.75;4.43;;;4.40;99.90;;;;;;4954200;28;20041;-85
2023/12/20 04:20:02;;;;;;;6.50;4.10;;;4.40;99.90;;;;;;4954240;28;20031;-81
2023/12/20 04:22:28;;;;;;;6.97;4.03;;;4.40;99.90;;;;;;4954102;28;20027;-85
2023/12/20 04:24:54;;;;;;;5.55;3.88;;;4.30;99.90;;;;;;4954208;28;20298;-82
2023/12/20 04:27:20;;;;;;;7.68;4.63;;;4.30;99.90;;;;;;4954303;29;20020;-83
2023/12/20 04:29:46;;;;;;;5.18;4.25;;;4.30;99.90;;;;;;4961068;28;20034;-83
2023/12/20 04:32:12;;;;;;;7.07;4.65;;;4.30;99.90;;;;;;4974189;28;20034;-83
2023/12/20 04:34:38;;;;;;;5.07;3.85;;;4.30;99.90;;;;;;4974556;28;20019;-82
2023/12/20 04:37:04;;;;;;;6.68;4.97;;;4.40;99.90;;;;;;4974200;28;20030;-84
2023/12/20 04:39:30;;;;;;;7.47;4.53;;;4.40;99.90;;;;;;4953514;28;20054;-82
2023/12/20 04:41:55;;;;;;;7.43;4.75;;;4.50;99.90;;;;;;4954093;29;20019;-82
2023/12/20 04:44:21;;;;;;;6.60;4.82;;;4.50;99.90;;;;;;4954823;28;20023;-83
2023/12/20 04:46:47;;;;;;;5.90;4.63;;;4.50;99.90;;;;;;4974081;28;20038;-84
2023/12/20 04:49:13;;;;;;;7.40;4.55;;;4.50;99.90;;;;;;4973556;28;20023;-82
2023/12/20 04:51:39;;;;;;;6.22;3.88;;;4.50;99.90;;;;;;4966880;28;20101;-83
2023/12/20 04:54:05;;;;;;;5.43;4.40;;;4.50;99.90;;;;;;4973213;28;20102;-85
2023/12/20 04:56:34;;;;;;;3.80;2.92;;;4.60;99.90;;;;;;4970763;28;20464;-84
2023/12/20 04:59:00;;;;;;;6.03;3.30;;;4.50;99.90;;;;;;4928096;29;20038;-82
2023/12/20 05:01:26;;;;;;;5.90;4.70;;;4.50;99.90;;;;;;4963552;28;20122;-83
2023/12/20 05:03:51;;;;;;;4.63;3.58;;;4.50;99.90;;;;;;4970664;29;20042;-83
2023/12/20 05:06:17;;;;;;;6.45;3.70;;;4.50;99.90;;;;;;4956291;29;20031;-83
2023/12/20 05:08:43;;;;;;;6.55;4.90;;;4.50;99.90;;;;;;4957680;28;20015;-82
2023/12/20 05:11:09;;;;;;;7.43;3.83;;;4.60;99.90;;;;;;4980599;28;20050;-83
2023/12/20 05:13:35;;;;;;;6.60;4.47;;;4.60;99.90;;;;;;4973405;28;20022;-83
2023/12/20 05:16:01;;;;;;;8.05;4.72;;;4.60;99.90;;;;;;4973003;28;20041;-83
2023/12/20 05:18:27;;;;;;;5.80;4.72;;;4.50;99.90;;;;;;4959394;28;20500;-84
2023/12/20 05:20:53;;;;;;;5.25;4.57;;;4.50;99.90;;;;;;4955629;28;20027;-84
2023/12/20 05:23:20;;;;;;;7.53;4.97;;;4.50;99.90;;;;;;4973170;28;20062;-83
2023/12/20 05:25:46;;;;;;;9.55;4.80;;;4.50;99.90;;;;;;4959078;28;20102;-83
2023/12/20 05:28:12;;;;;;;6.15;3.85;;;4.50;99.90;;;;;;4965586;28;20106;-83
2023/12/20 05:30:38;;;;;;;7.80;3.67;;;4.50;99.90;;;;;;4966974;28;20043;-82
2023/12/20 05:33:04;;;;;;;8.13;3.50;;;4.40;99.90;;;;;;4973372;28;20019;-83
2023/12/20 05:35:30;;;;;;;9.50;3.75;;;4.40;99.90;;;;;;4976377;28;20030;-81
2023/12/20 05:37:55;;;;;;;8.30;3.85;;;4.40;99.90;;;;;;4976318;28;20450;-82
2023/12/20 05:40:21;;;;;;;4.70;3.80;;;4.40;99.90;;;;;;4976753;28;20054;-82
2023/12/20 05:42:48;;;;;;;9.48;4.35;;;4.50;99.90;;;;;;4957337;28;20097;-84
2023/12/20 05:45:15;;;;;;;6.53;3.13;;;4.50;99.90;;;;;;4964614;28;20073;-83
2023/12/20 05:47:41;;;;;;;7.13;3.92;;;4.50;99.90;;;;;;4976686;28;20053;-84
2023/12/20 05:50:07;;;;;;;7.88;3.55;;;4.50;99.90;;;;;;4963515;28;20043;-82
2023/12/20 05:52:33;;;;;;;6.63;3.42;;;4.50;99.90;;;;;;4976997;28;20019;-83
2023/12/20 05:55:01;;;;;;;8.48;3.63;;;4.60;99.90;;;;;;4977448;28;20456;-83
2023/12/20 05:57:27;;;;;;;5.13;3.63;;;4.60;99.90;;;;;;4966277;28;20031;-82
2023/12/20 05:59:53;;;;;;;10.77;3.72;;;4.60;99.90;;;;;;4974334;28;20034;-84
2023/12/20 06:02:19;;;;;;;5.82;3.75;;;4.60;99.90;;;;;;4976647;28;20031;-83
2023/12/20 06:04:45;;;;;;;6.97;4.00;;;4.60;99.90;;;;;;4976130;28;20407;-83
2023/12/20 06:07:12;;;;;;;7.80;3.28;;;4.60;99.90;;;;;;4976516;28;20029;-83
2023/12/20 06:09:38;;;;;;;6.32;3.83;;;4.70;99.90;;;;;;4976144;28;20026;-82
2023/12/20 06:12:04;;;;;;;10.68;5.40;;;4.70;99.90;;;;;;4957450;28;20023;-82
2023/12/20 06:14:30;;;;;;;5.63;4.00;;;4.80;99.90;;;;;;4968120;28;20019;-84
2023/12/20 06:16:57;;;;;;;5.32;4.05;;;4.70;99.90;;;;;;4955863;28;20036;-82
2023/12/20 06:19:23;;;;;;;5.20;3.47;;;4.80;99.90;;;;;;4949616;28;20033;-83
2023/12/20 06:21:49;;;;;;;6.60;3.92;;;4.80;99.90;;;;;;4957960;28;20031;-82
2023/12/20 06:24:15;;;;;;;5.93;3.90;;;4.80;99.90;;;;;;4955095;29;20079;-85
2023/12/20 06:26:41;;;;;;;8.38;3.75;;;4.80;99.90;;;;;;4958904;28;20031;-86
2023/12/20 06:29:07;;;;;;;5.65;3.90;;;4.80;99.90;;;;;;4954588;28;20035;-84
2023/12/20 06:31:33;;;;;;;7.65;4.22;;;4.80;99.90;;;;;;4969558;28;20027;-83
2023/12/20 06:33:59;;;;;;;4.20;3.30;;;4.90;99.90;;;;;;4979715;28;20058;-83
2023/12/20 06:36:26;;;;;;;13.98;3.80;;;4.90;99.90;;;;;;4972812;28;20085;-83
2023/12/20 06:38:52;;;;;;;6.33;4.17;;;4.90;99.90;;;;;;4974762;28;20079;-82
2023/12/20 06:41:18;;;;;;;8.88;3.85;;;5.00;99.90;;;;;;4983036;28;20018;-82
2023/12/20 06:43:44;;;;;;;9.05;4.25;;;5.00;99.90;;;;;;4976714;28;20114;-83
2023/12/20 06:46:10;;;;;;;7.97;4.05;;;5.00;99.90;;;;;;4943760;28;20034;-84
2023/12/20 06:48:36;;;;;;;6.15;3.08;;;5.00;99.90;;;;;;4962620;28;20030;-83
2023/12/20 06:51:02;;;;;;;7.60;3.45;;;5.00;99.90;;;;;;4980220;28;20034;-83
2023/12/20 06:53:28;;;;;;;4.75;3.17;;;5.00;99.90;;;;;;4976238;28;20499;-83
2023/12/20 06:55:56;;;;;;;6.03;3.20;;;5.00;99.90;;;;;;4981206;28;20077;-84
2023/12/20 06:58:22;;;;;;;6.07;3.20;;;5.10;99.90;;;;;;4981900;28;20027;-81
2023/12/20 07:00:48;;;;;;;4.80;3.67;;;5.00;99.90;;;;;;4976356;28;20026;-83
2023/12/20 07:03:14;;;;;;;4.90;2.75;;;5.10;99.90;;;;;;4974498;28;20063;-81
2023/12/20 07:05:40;;;;;;;10.60;5.35;;;5.10;99.90;;;;;;4974767;28;20034;-82
2023/12/20 07:08:07;;;;;;;8.13;4.13;;;5.10;99.90;;;;;;4974671;28;20114;-84
2023/12/20 07:10:33;;;;;;;9.20;4.65;;;5.10;99.90;;;;;;4973995;28;20468;-82
2023/12/20 07:12:58;;;;;;;11.82;5.40;;;5.20;99.90;;;;;;4966845;28;20114;-82
2023/12/20 07:15:24;;;;;;;8.82;4.35;;;5.20;99.90;;;;;;4956837;28;20031;-83
2023/12/20 07:17:50;;;;;;;5.40;3.20;;;5.20;99.90;;;;;;4974779;28;20066;-83
2023/12/20 07:20:17;;;;;;;5.43;3.20;;;5.20;99.90;;;;;;4974243;28;20421;-82
2023/12/20 07:22:43;;;;;;;7.10;3.53;;;5.10;99.90;;;;;;4957368;28;20034;-82
2023/12/20 07:25:09;;;;;;;7.53;2.95;;;5.10;99.90;;;;;;4961283;28;20034;-83
2023/12/20 07:27:35;;;;;;;5.43;3.67;;;5.10;99.90;;;;;;4958464;28;20445;-83
2023/12/20 07:30:00;;;;;;;5.57;3.80;;;5.10;99.90;;;;;;4976301;28;20056;-82
2023/12/20 07:32:27;;;;;;;5.15;2.78;;;5.10;99.90;;;;;;4974836;28;20035;-82
2023/12/20 07:34:53;;;;;;;6.18;4.20;;;5.20;99.90;;;;;;4974768;28;20475;-82
2023/12/20 07:37:19;;;;;;;5.20;3.70;;;5.20;99.90;;;;;;4962212;28;20059;-84
2023/12/20 07:39:45;;;;;;;4.97;3.15;;;5.20;99.90;;;;;;4973968;28;20370;-83
2023/12/20 07:42:11;;;;;;;19.25;15.73;;;5.20;99.90;;;;;;4974714;28;20106;-85
2023/12/20 07:44:37;;;;;;;4.85;3.22;;;5.20;99.90;;;;;;4974453;28;20517;-83
2023/12/20 07:47:03;;;;;;;8.38;5.93;;;5.20;99.90;;;;;;4967193;28;20059;-81
2023/12/20 07:49:29;;;;;;;4.13;2.88;;;5.20;99.90;;;;;;4969766;28;20023;-82
2023/12/20 07:51:55;;;;;;;7.57;3.90;;;5.20;99.90;;;;;;4974434;28;20015;-83
2023/12/20 07:54:21;;;;;;;8.63;5.20;;;5.20;99.90;;;;;;4974993;28;20089;-83
2023/12/20 07:56:48;;;;;;;3.50;2.70;;;5.20;99.90;;;;;;4973730;28;20035;-83
2023/12/20 07:59:14;;;;;;;3.75;3.00;;;5.10;99.90;;;;;;4973894;28;20054;-83
2023/12/20 08:01:40;;;;;;;54.72;46.35;;;5.10;99.90;;;;;;4942932;28;20081;-82
2023/12/20 08:04:06;;;;;;;6.72;4.57;;;5.10;99.90;;;;;;4953003;29;20086;-83
2023/12/20 08:06:32;;;;;;;5.45;3.70;;;5.10;99.90;;;;;;4939869;28;20034;-83
2023/12/20 08:08:57;;;;;;;7.57;4.03;;;5.10;99.90;;;;;;4943283;29;20027;-84
2023/12/20 08:11:23;;;;;;;19.42;9.95;;;5.20;99.90;;;;;;4956482;28;20442;-84
2023/12/20 08:13:49;;;;;;;7.15;4.65;;;5.20;99.90;;;;;;4952067;29;20058;-84
2023/12/20 08:16:17;;;;;;;4.70;3.63;;;5.20;99.90;;;;;;4954436;28;20027;-84
2023/12/20 08:18:43;;;;;;;9.60;4.15;;;5.30;99.90;;;;;;4954091;28;20031;-83
2023/12/20 08:21:09;;;;;;;4.63;2.97;;;5.30;99.90;;;;;;4945574;28;20064;-82
2023/12/20 08:23:35;;;;;;;7.53;3.67;;;5.40;99.90;;;;;;4950139;29;20031;-83
2023/12/20 08:26:07;;;;;;;7.28;2.90;;;5.40;99.90;;;;;;4940519;28;20019;-83
2023/12/20 08:28:34;;;;;;;4.95;2.50;;;5.50;99.90;;;;;;4955351;28;20027;-82
2023/12/20 08:31:00;;;;;;;7.93;3.50;;;5.50;99.90;;;;;;4939438;28;20038;-82
2023/12/20 08:33:26;;;;;;;5.97;2.85;;;5.60;99.90;;;;;;4936466;29;20024;-82
2023/12/20 08:35:52;;;;;;;4.85;3.28;;;5.50;99.90;;;;;;4943459;29;20031;-82
2023/12/20 08:38:18;;;;;;;6.80;3.22;;;5.60;99.90;;;;;;4949429;28;20401;-81
2023/12/20 08:40:44;;;;;;;3.75;2.38;;;5.60;99.90;;;;;;4942763;29;20027;-82
2023/12/20 08:43:10;;;;;;;5.18;2.55;;;5.60;99.90;;;;;;4940119;29;20039;-83
2023/12/20 08:45:36;;;;;;;3.97;3.17;;;5.50;99.90;;;;;;4960520;28;20020;-83
2023/12/20 08:48:03;;;;;;;5.47;3.25;;;5.60;99.90;;;;;;4952098;29;20023;-82
2023/12/20 08:50:29;;;;;;;6.22;4.25;;;5.60;99.90;;;;;;4955497;28;20361;-84
2023/12/20 08:52:55;;;;;;;3.72;2.72;;;5.60;99.90;;;;;;4955492;28;20027;-82
2023/12/20 08:55:21;;;;;;;5.05;2.85;;;5.50;99.90;;;;;;4939933;29;20020;-82
2023/12/20 08:57:47;;;;;;;6.97;3.63;;;5.50;99.90;;;;;;4952630;29;20058;-84
2023/12/20 09:00:13;;;;;;;6.72;3.67;;;5.40;99.90;;;;;;4954596;28;20023;-82
2023/12/20 09:02:39;;;;;;;5.40;3.50;;;5.50;99.90;;;;;;4954669;28;20034;-83
2023/12/20 09:05:05;;;;;;;3.97;3.00;;;5.40;99.90;;;;;;4955373;28;20073;-85
2023/12/20 09:07:32;;;;;;;3.63;2.92;;;5.50;99.90;;;;;;4973573;28;20397;-82
2023/12/20 09:09:58;;;;;;;5.97;3.67;;;5.40;99.90;;;;;;4976906;28;20030;-83
2023/12/20 09:12:24;;;;;;;4.00;3.25;;;5.40;99.90;;;;;;4976384;28;20090;-82
2023/12/20 09:14:51;;;;;;;8.35;5.93;;;5.40;99.90;;;;;;4965630;28;20118;-83
2023/12/20 09:17:18;;;;;;;4.00;3.25;;;5.40;99.90;;;;;;4978132;28;20061;-84
2023/12/20 09:19:45;;;;;;;7.05;4.10;;;5.40;99.90;;;;;;4978771;28;20031;-82
2023/12/20 09:22:11;;;;;;;5.72;3.22;;;5.40;99.90;;;;;;4963476;28;20078;-84
2023/12/20 09:24:38;;;;;;;7.13;3.67;;;5.40;99.90;;;;;;4970805;28;20023;-83
2023/12/20 09:27:07;;;;;;;5.47;3.93;;;5.40;99.90;;;;;;4957642;29;20114;-84
2023/12/20 09:29:33;;;;;;;5.75;4.13;;;5.40;99.90;;;;;;4971095;28;20280;-83
2023/12/20 09:31:59;;;;;;;5.05;3.35;;;5.40;99.90;;;;;;4956993;29;20110;-84
2023/12/20 09:34:25;;;;;;;4.05;3.08;;;5.40;99.90;;;;;;4968352;28;20024;-82
2023/12/20 09:36:52;;;;;;;5.68;3.92;;;5.40;99.90;;;;;;4956818;28;20027;-83
2023/12/20 09:39:20;;;;;;;3.97;2.92;;;5.40;99.90;;;;;;4976944;28;20027;-83
2023/12/20 09:41:51;;;;;;;6.45;3.38;;;5.50;99.90;;;;;;4958998;29;20354;-82
2023/12/20 09:44:18;;;;;;;5.65;4.38;;;5.40;99.90;;;;;;4976562;28;20027;-83
2023/12/20 09:46:45;;;;;;;8.20;5.30;;;5.40;99.90;;;;;;4983273;28;20019;-83
2023/12/20 09:49:13;;;;;;;6.15;4.10;;;5.40;99.90;;;;;;4965891;28;20028;-83
2023/12/20 09:51:39;;;;;;;;;;;5.40;99.90;;;;;;4971729;28;20023;-83
2023/12/20 09:54:05;;;;;;;5.15;3.75;;;5.40;99.90;;;;;;4965990;28;20265;-83
2023/12/20 09:56:31;;;;;;;6.10;4.05;;;5.40;99.90;;;;;;4976525;28;20102;-84
2023/12/20 09:58:57;;;;;;;5.95;4.55;;;5.30;99.90;;;;;;4959988;28;20030;-83
2023/12/20 10:01:28;;;;;;;7.80;3.72;;;5.40;99.90;;;;;;4955385;28;20033;-83
2023/12/20 10:03:55;;;;;;;7.72;4.70;;;5.40;99.90;;;;;;4987620;28;20107;-83
2023/12/20 10:06:22;;;;;;;11.98;3.95;;;5.30;99.90;;;;;;4967211;28;20396;-83
2023/12/20 10:08:48;;;;;;;7.15;4.22;;;5.30;99.90;;;;;;4959226;28;20078;-82
2023/12/20 10:11:14;;;;;;;7.28;4.38;;;5.30;99.90;;;;;;4970808;28;20489;-83
2023/12/20 10:13:41;;;;;;;8.63;5.28;;;5.40;99.90;;;;;;4973814;28;20026;-83
2023/12/20 10:16:07;;;;;;;8.47;4.77;;;5.40;99.90;;;;;;4958249;28;20480;-84
2023/12/20 10:18:33;;;;;;;7.85;4.43;;;5.40;99.90;;;;;;4975665;28;20265;-82
2023/12/20 10:21:00;;;;;;;5.90;3.97;;;5.40;99.90;;;;;;4967551;28;20027;-83
2023/12/20 10:23:26;;;;;;;6.10;3.65;;;5.40;99.90;;;;;;4956138;29;20030;-84
2023/12/20 10:25:59;;;;;;;4.07;2.70;;;5.30;99.90;;;;;;4940539;29;20039;-84
2023/12/20 10:28:27;;;;;;;3.00;2.45;;;5.30;99.90;;;;;;4958318;29;20074;-83
2023/12/20 10:30:57;;;;;;;7.57;3.60;;;5.30;99.90;;;;;;4983256;28;20081;-84
2023/12/20 10:33:25;;;;;;;6.18;3.35;;;5.30;99.90;;;;;;4987662;28;20023;-84
2023/12/20 10:35:53;;;;;;;5.53;3.00;;;5.30;99.90;;;;;;4957662;28;20055;-83
2023/12/20 10:38:19;;;;;;;6.13;3.92;;;5.30;99.90;;;;;;4975163;28;20031;-85
2023/12/20 10:40:49;;;;;;;5.75;3.10;;;5.30;99.90;;;;;;4975580;28;20039;-82
2023/12/20 10:43:15;;;;;;;4.43;3.22;;;5.30;99.90;;;;;;4969790;28;20035;-84
2023/12/20 10:45:44;;;;;;;4.27;2.53;;;5.30;99.90;;;;;;4952764;28;20031;-85
2023/12/20 10:48:13;;;;;;;6.50;3.00;;;5.30;99.90;;;;;;4972907;28;20049;-83
2023/12/20 10:50:41;;;;;;;5.30;3.60;;;5.30;99.90;;;;;;4965774;28;20074;-85
2023/12/20 10:53:07;;;;;;;5.95;3.53;;;5.30;99.90;;;;;;4944869;28;20023;-84
2023/12/20 10:55:34;;;;;;;4.10;3.17;;;5.30;99.90;;;;;;4957743;28;20027;-82
2023/12/20 10:58:08;;;;;;;6.90;3.13;;;5.40;99.90;;;;;;4974901;28;20050;-83
2023/12/20 11:00:42;;;;;;;6.40;3.47;;;5.40;99.90;;;;;;4974070;28;20102;-84
2023/12/20 11:03:10;;;;;;;3.15;2.38;;;5.40;99.90;;;;;;4976488;28;20050;-82
2023/12/20 11:06:03;;;;;;;5.22;3.08;;;5.30;99.90;;;;;;4936338;29;20119;-82
2023/12/20 11:08:34;;;;;;;5.05;3.28;;;5.40;99.90;;;;;;4970333;28;20106;-83
2023/12/20 11:11:04;;;;;;;3.92;2.75;;;5.40;99.90;;;;;;4947737;29;20034;-82
2023/12/20 11:14:04;;;;;;;5.35;2.95;;;5.40;99.90;;;;;;4971783;28;20125;-80
2023/12/20 11:16:32;;;;;;;4.82;4.03;;;5.40;99.90;;;;;;4956168;28;20056;-83
2023/12/20 11:19:04;;;;;;;7.00;4.38;;;5.40;99.90;;;;;;4980807;28;20080;-82
2023/12/20 11:21:30;;;;;;;8.52;3.30;;;5.40;99.90;;;;;;4978639;28;20029;-82
2023/12/20 11:23:56;;;;;;;6.72;4.15;;;5.40;99.90;;;;;;4973883;28;20469;-83
2023/12/20 11:26:29;;;;;;;4.28;3.33;;;5.40;99.90;;;;;;4961142;28;20110;-83
2023/12/20 11:29:13;;;;;;;4.10;2.95;;;5.40;99.90;;;;;;4973947;28;20031;-85
2023/12/20 11:31:42;;;;;;;3.17;2.67;;;5.30;99.90;;;;;;4946215;29;20532;-82
2023/12/20 11:34:14;;;;;;;4.60;2.97;;;5.30;99.90;;;;;;4968493;28;20090;-83
2023/12/20 11:36:42;;;;;;;5.50;3.00;;;5.30;99.90;;;;;;4973817;28;20077;-82
2023/12/20 11:39:10;;;;;;;8.52;3.58;;;5.30;99.90;;;;;;4974589;28;20093;-82
2023/12/20 11:41:37;;;;;;;5.25;2.50;;;5.20;99.90;;;;;;4966614;28;20027;-82
2023/12/20 11:44:04;;;;;;;3.60;3.10;;;5.20;99.90;;;;;;4949389;28;20046;-81
2023/12/20 11:46:31;;;;;;;5.32;2.90;;;5.10;99.90;;;;;;4980869;28;20157;-81
2023/12/20 11:48:57;;;;;;;6.30;5.40;;;5.10;99.90;;;;;;4972400;28;20027;-83
2023/12/20 11:51:23;;;;;;;5.20;3.22;;;5.00;99.90;;;;;;4972403;28;20125;-83
2023/12/20 11:53:53;;;;;;;8.98;6.60;;;5.00;99.90;;;;;;4977017;28;20018;-83
2023/12/20 11:56:19;;;;;;;4.55;2.80;;;5.00;99.90;;;;;;4947386;28;20035;-82
2023/12/20 11:58:45;;;;;;;6.13;3.30;;;5.10;99.90;;;;;;4974265;28;20023;-84
2023/12/20 12:01:11;;;;;;;4.03;2.78;;;5.10;99.90;;;;;;4973911;28;20041;-83
2023/12/20 12:03:37;;;;;;;6.72;4.82;;;5.10;99.90;;;;;;4973707;28;20205;-83
2023/12/20 12:06:04;;;;;;;7.43;4.35;;;5.10;99.90;;;;;;4973942;28;20510;-83
2023/12/20 12:08:30;;;;;;;6.30;3.70;;;5.00;99.90;;;;;;4956077;28;20100;-84
2023/12/20 12:10:56;;;;;;;6.65;3.13;;;5.10;99.90;;;;;;4954934;29;20027;-83
2023/12/20 12:13:22;;;;;;;3.45;2.30;;;5.00;99.90;;;;;;4952475;28;20026;-82
2023/12/20 12:15:49;;;;;;;6.18;3.75;;;5.10;99.90;;;;;;4966127;28;20015;-84
2023/12/20 12:18:17;;;;;;;6.78;3.55;;;5.10;99.90;;;;;;4981338;28;20026;-84
2023/12/20 12:20:43;;;;;;;4.43;2.53;;;5.00;99.90;;;;;;4988342;28;20037;-84
2023/12/20 12:23:09;;;;;;;6.10;3.33;;;5.00;99.90;;;;;;4973736;28;20023;-83
2023/12/20 12:25:37;;;;;;;4.22;3.17;;;5.00;99.90;;;;;;4960037;28;20370;-83
2023/12/20 12:28:04;;;;;;;3.90;2.83;;;5.00;99.90;;;;;;4942099;29;20023;-83
2023/12/20 12:30:30;;;;;;;5.95;3.05;;;5.00;99.90;;;;;;4967162;28;20488;-84
2023/12/20 12:32:57;;;;;;;5.88;3.55;;;5.00;99.90;;;;;;4974267;28;20021;-83
2023/12/20 12:35:24;;;;;;;7.03;4.05;;;5.00;99.90;;;;;;4952907;28;20141;-83
2023/12/20 12:37:50;;;;;;;5.55;2.92;;;5.00;99.90;;;;;;4954124;28;20073;-84
2023/12/20 12:40:17;;;;;;;4.18;3.13;;;5.00;99.90;;;;;;4965375;28;20055;-84
2023/12/20 12:42:44;;;;;;;4.95;3.60;;;5.00;99.90;;;;;;4967868;28;20042;-84
2023/12/20 12:45:14;;;;;;;4.20;2.90;;;5.00;99.90;;;;;;4950573;29;20444;-83
2023/12/20 12:47:40;;;;;;;5.22;3.70;;;5.00;99.90;;;;;;4954045;29;20031;-83
2023/12/20 12:50:06;;;;;;;3.63;2.78;;;4.90;99.90;;;;;;4965015;28;20023;-84
2023/12/20 12:52:32;;;;;;;4.90;2.75;;;4.90;99.90;;;;;;4968449;28;20126;-83
2023/12/20 12:54:58;;;;;;;7.18;3.95;;;5.00;99.90;;;;;;4983816;28;20023;-84